createdAt,value
2018-07-03T00:01:07.247Z,69.23
2018-07-03T00:03:36.729Z,70.38
2018-07-03T00:06:06.329Z,69.84
2018-07-03T00:08:35.789Z,70.16
2018-07-03T00:11:05.260Z,69.79
2018-07-03T00:13:35.596Z,70.39
2018-07-03T00:16:05.277Z,71.36
2018-07-03T00:18:34.759Z,71.81
2018-07-03T00:21:04.295Z,70.14
2018-07-03T00:23:33.758Z,69.72
2018-07-03T00:26:03.969Z,73.03
2018-07-03T00:28:33.462Z,73.36
2018-07-03T00:31:03.005Z,73.80
2018-07-03T00:33:32.180Z,74.97
2018-07-03T00:36:01.626Z,73.55
2018-07-03T00:38:31.217Z,73.64
2018-07-03T00:41:00.393Z,75.28
2018-07-03T00:43:29.946Z,74.90
2018-07-03T00:45:59.454Z,74.88
2018-07-03T00:48:28.907Z,75.28
2018-07-03T00:50:58.514Z,74.13
2018-07-03T00:53:27.968Z,73.25
2018-07-03T00:55:57.489Z,72.34
2018-07-03T00:58:27.383Z,72.65
2018-07-03T01:00:56.878Z,72.11
2018-07-03T01:03:26.018Z,74.44
2018-07-03T01:05:55.486Z,74.68
2018-07-03T01:08:25.007Z,75.77
2018-07-03T01:10:54.445Z,76.20
2018-07-03T01:13:23.867Z,76.43
2018-07-03T01:15:53.414Z,76.88
2018-07-03T01:18:22.887Z,77.30
2018-07-03T01:20:52.354Z,77.21
2018-07-03T01:23:21.851Z,76.08
2018-07-03T01:25:51.473Z,76.71
2018-07-03T01:28:20.945Z,77.88
2018-07-03T01:30:50.405Z,77.76
2018-07-03T01:33:19.882Z,77.19
2018-07-03T01:35:49.453Z,77.32
2018-07-03T01:38:18.677Z,76.85
2018-07-03T01:40:48.242Z,77.03
2018-07-03T01:43:17.832Z,76.48
2018-07-03T01:45:47.329Z,75.77
2018-07-03T01:48:16.756Z,77.45
2018-07-03T01:50:46.195Z,77.66
2018-07-03T01:53:15.693Z,77.14
2018-07-03T01:55:44.904Z,77.87
2018-07-03T01:58:14.428Z,75.39
2018-07-03T02:00:44.274Z,74.98
2018-07-03T02:03:13.729Z,75.87
2018-07-03T02:05:43.250Z,75.62
2018-07-03T02:08:12.752Z,76.38
2018-07-03T02:10:42.196Z,77.96
2018-07-03T02:13:11.670Z,78.64
2018-07-03T02:15:41.165Z,78.58
2018-07-03T02:18:10.849Z,78.29
2018-07-03T02:20:40.416Z,78.23
2018-07-03T02:23:09.942Z,78.80
2018-07-03T02:25:39.381Z,78.71
2018-07-03T02:28:08.584Z,79.61
2018-07-03T02:30:38.090Z,79.58
2018-07-03T02:33:07.571Z,80.17
2018-07-03T02:35:37.189Z,79.00
2018-07-03T02:38:06.360Z,78.93
2018-07-03T02:40:35.858Z,79.15
2018-07-03T02:49:53.226Z,80.25
2018-07-03T02:52:22.730Z,81.22
2018-07-03T02:54:52.261Z,80.79
2018-07-03T02:57:21.730Z,80.38
2018-07-03T02:59:51.179Z,80.70
2018-07-03T03:02:20.719Z,79.87
2018-07-03T03:04:50.197Z,80.50
2018-07-03T03:07:19.741Z,79.33
2018-07-03T03:09:49.301Z,78.53
2018-07-03T03:12:18.858Z,79.17
2018-07-03T03:14:48.657Z,78.36
2018-07-03T03:17:18.178Z,78.03
2018-07-03T03:19:47.652Z,78.27
2018-07-03T03:22:17.152Z,80.30
2018-07-03T03:24:46.643Z,80.74
2018-07-03T03:27:16.105Z,80.13
2018-07-03T03:29:45.588Z,79.94
2018-07-03T03:32:15.058Z,78.35
2018-07-03T03:34:44.649Z,78.87
2018-07-03T03:37:14.116Z,78.86
2018-07-03T03:39:43.542Z,80.42
2018-07-03T03:42:13.127Z,80.10
2018-07-03T03:44:42.631Z,79.12
2018-07-03T03:47:12.179Z,79.14
2018-07-03T03:49:41.639Z,79.80
2018-07-03T03:52:11.261Z,80.95
2018-07-03T03:54:40.755Z,82.42
2018-07-03T03:57:10.296Z,82.95
2018-07-03T03:59:39.846Z,83.51
2018-07-03T04:02:09.259Z,84.24
2018-07-03T04:04:38.730Z,83.12
2018-07-03T04:07:08.647Z,83.36
2018-07-03T04:09:38.109Z,84.74
2018-07-03T04:12:08.234Z,84.05
2018-07-03T04:14:37.863Z,83.72
2018-07-03T04:17:07.408Z,83.52
2018-07-03T04:19:36.993Z,84.40
2018-07-03T04:22:06.525Z,83.24
2018-07-03T04:24:35.979Z,80.62
2018-07-03T04:27:05.605Z,77.67
2018-07-03T04:29:35.514Z,77.11
2018-07-03T04:32:05.170Z,76.12
2018-07-03T04:34:34.730Z,75.36
2018-07-03T04:37:04.562Z,74.47
2018-07-03T04:39:34.107Z,74.86
2018-07-03T04:42:03.722Z,74.92
2018-07-03T04:44:33.215Z,74.65
2018-07-03T04:47:02.712Z,74.44
2018-07-03T04:49:32.809Z,74.09
2018-07-03T04:52:02.670Z,74.02
2018-07-03T04:54:32.521Z,73.72
2018-07-03T04:57:02.596Z,73.33
2018-07-03T04:59:32.232Z,73.43
2018-07-03T05:02:02.314Z,72.56
2018-07-03T05:04:31.781Z,72.63
2018-07-03T05:07:01.261Z,72.78
2018-07-03T05:09:30.847Z,72.18
2018-07-03T05:12:00.091Z,72.72
2018-07-03T05:14:29.522Z,72.42
2018-07-03T05:16:59.765Z,72.64
2018-07-03T05:19:30.789Z,72.36
2018-07-03T05:22:00.371Z,72.25
2018-07-03T05:24:29.793Z,72.57
2018-07-03T05:26:59.188Z,72.15
2018-07-03T05:29:28.731Z,72.02
2018-07-03T05:31:58.112Z,71.28
2018-07-03T05:34:27.589Z,70.31
2018-07-03T05:36:57.285Z,70.21
2018-07-03T05:39:26.815Z,70.41
2018-07-03T05:41:56.442Z,70.62
2018-07-03T05:44:25.986Z,70.38
2018-07-03T05:46:55.416Z,68.32
2018-07-03T05:49:25.190Z,68.65
2018-07-03T05:51:54.636Z,66.75
2018-07-03T05:54:24.394Z,66.89
2018-07-03T05:56:53.985Z,67.11
2018-07-03T05:59:24.026Z,67.79
2018-07-03T06:01:53.677Z,66.96
2018-07-03T06:04:23.300Z,66.73
2018-07-03T06:06:52.841Z,66.80
2018-07-03T06:09:23.169Z,67.14
2018-07-03T06:11:52.655Z,68.14
2018-07-03T06:14:22.374Z,66.57
2018-07-03T06:16:55.294Z,64.71
2018-07-03T06:19:27.408Z,63.81
2018-07-03T06:21:57.272Z,64.75
2018-07-03T06:24:26.773Z,64.85
2018-07-03T06:26:56.265Z,63.38
2018-07-03T06:29:25.778Z,63.92
2018-07-03T06:31:55.400Z,62.87
2018-07-03T06:34:24.845Z,62.10
2018-07-03T06:36:54.309Z,62.09
2018-07-03T06:39:23.791Z,62.58
2018-07-03T06:41:53.284Z,62.23
2018-07-03T06:44:22.899Z,61.98
2018-07-03T06:46:52.381Z,61.15
2018-07-03T06:49:21.827Z,60.80
2018-07-03T06:51:51.447Z,60.12
2018-07-03T06:54:20.996Z,59.68
2018-07-03T06:56:50.493Z,56.59
2018-07-03T06:59:20.045Z,57.34
2018-07-03T07:01:49.563Z,57.74
2018-07-03T07:04:19.048Z,56.92
2018-07-03T07:06:48.573Z,56.70
2018-07-03T07:09:18.050Z,57.59
2018-07-03T07:11:47.711Z,55.74
2018-07-03T07:14:17.142Z,55.69
2018-07-03T07:16:46.608Z,53.50
2018-07-03T07:19:16.156Z,53.41
2018-07-03T07:21:45.578Z,52.99
2018-07-03T07:24:15.633Z,53.67
2018-07-03T07:26:45.053Z,53.03
2018-07-03T07:29:14.584Z,51.70
2018-07-03T07:31:44.173Z,51.98
2018-07-03T07:36:43.229Z,53.06
2018-07-03T07:39:13.531Z,53.19
2018-07-03T07:41:42.881Z,51.25
2018-07-03T07:44:12.383Z,50.71
2018-07-03T07:46:41.892Z,50.35
2018-07-03T07:49:12.278Z,49.63
2018-07-03T07:51:41.749Z,49.50
2018-07-03T07:54:11.254Z,47.39
2018-07-03T07:56:41.017Z,47.24
2018-07-03T07:59:10.545Z,47.59
2018-07-03T08:01:40.388Z,45.38
2018-07-03T08:04:09.882Z,46.26
2018-07-03T08:06:39.461Z,46.38
2018-07-03T08:09:10.679Z,41.04
2018-07-03T08:11:39.844Z,43.54
2018-07-03T08:14:09.318Z,43.17
2018-07-03T08:16:38.956Z,46.12
2018-07-03T08:19:08.532Z,44.08
2018-07-03T08:21:37.949Z,43.76
2018-07-03T08:24:07.465Z,43.98
2018-07-03T08:26:37.047Z,44.19
2018-07-03T08:29:06.569Z,44.74
2018-07-03T08:31:36.189Z,43.90
2018-07-03T08:34:06.567Z,43.37
2018-07-03T08:36:36.224Z,44.04
2018-07-03T08:39:08.658Z,43.63
2018-07-03T08:41:37.818Z,42.21
2018-07-03T08:44:07.310Z,43.00
2018-07-03T08:46:37.651Z,41.43
2018-07-03T08:49:07.982Z,39.82
2018-07-03T08:51:37.921Z,39.33
2018-07-03T08:54:07.217Z,37.64
2018-07-03T08:56:36.508Z,36.66
2018-07-03T08:59:06.833Z,37.22
2018-07-03T09:01:36.273Z,36.95
2018-07-03T09:04:05.796Z,36.09
2018-07-03T09:06:35.241Z,36.12
2018-07-03T09:09:07.992Z,35.70
2018-07-03T09:11:37.753Z,36.70
2018-07-03T09:14:07.686Z,37.22
2018-07-03T09:16:37.635Z,36.10
2018-07-03T09:19:07.172Z,38.01
2018-07-03T09:21:36.648Z,36.61
2018-07-03T09:24:06.265Z,36.58
2018-07-03T09:26:35.731Z,35.78
2018-07-03T09:29:05.266Z,35.63
2018-07-03T09:31:34.753Z,35.94
2018-07-03T09:34:04.789Z,34.49
2018-07-03T09:36:34.386Z,34.60
2018-07-03T09:39:04.227Z,34.01
2018-07-03T09:41:33.755Z,32.24
2018-07-03T09:44:03.419Z,34.35
2018-07-03T09:46:32.983Z,35.12
2018-07-03T09:49:02.593Z,34.12
2018-07-03T09:51:32.050Z,35.39
2018-07-03T09:54:01.480Z,33.88
2018-07-03T09:56:32.041Z,33.90
2018-07-03T09:59:01.803Z,34.42
2018-07-03T10:01:31.651Z,35.00
2018-07-03T10:04:01.819Z,34.33
2018-07-03T10:06:31.472Z,34.85
2018-07-03T10:09:01.793Z,35.15
2018-07-03T10:11:31.307Z,35.51
2018-07-03T10:14:00.793Z,33.05
2018-07-03T10:16:30.477Z,33.33
2018-07-03T10:19:04.389Z,34.89
2018-07-03T10:21:34.153Z,35.69
2018-07-03T10:24:03.747Z,34.75
2018-07-03T10:26:33.327Z,35.45
2018-07-03T10:29:04.180Z,36.03
2018-07-03T10:31:33.698Z,36.74
2018-07-03T10:34:03.318Z,37.71
2018-07-03T10:36:32.987Z,37.65
2018-07-03T10:39:02.549Z,38.48
2018-07-03T10:41:32.459Z,38.77
2018-07-03T10:44:02.057Z,39.36
2018-07-03T10:46:31.642Z,39.64
2018-07-03T10:49:01.061Z,40.57
2018-07-03T10:51:31.448Z,40.07
2018-07-03T10:54:00.968Z,40.28
2018-07-03T10:56:30.500Z,41.51
2018-07-03T10:59:00.089Z,38.96
2018-07-03T11:01:29.520Z,39.87
2018-07-03T11:03:58.964Z,39.94
2018-07-03T11:06:28.338Z,39.19
2018-07-03T11:08:57.842Z,34.39
2018-07-03T11:11:28.161Z,30.59
2018-07-03T11:13:58.368Z,29.64
2018-07-03T11:16:27.860Z,32.40
2018-07-03T11:18:57.515Z,33.57
2018-07-03T11:21:27.582Z,35.45
2018-07-03T11:23:57.154Z,35.29
2018-07-03T11:26:27.360Z,36.38
2018-07-03T11:28:57.285Z,37.88
2018-07-03T11:31:26.781Z,38.21
2018-07-03T11:33:58.961Z,38.15
2018-07-03T11:36:28.474Z,38.92
2018-07-03T11:38:58.161Z,40.00
2018-07-03T11:41:27.643Z,40.04
2018-07-03T11:43:57.129Z,40.54
2018-07-03T11:46:26.987Z,40.73
2018-07-03T11:48:57.769Z,41.71
2018-07-03T11:51:27.700Z,44.02
2018-07-03T11:53:57.618Z,44.85
2018-07-03T11:56:27.289Z,45.74
2018-07-03T11:59:00.404Z,45.15
2018-07-03T12:01:30.311Z,45.19
2018-07-03T12:03:59.740Z,45.01
2018-07-03T12:06:30.152Z,45.91
2018-07-03T12:09:01.254Z,45.07
2018-07-03T12:11:30.739Z,47.26
2018-07-03T12:14:00.338Z,45.49
2018-07-03T12:16:30.890Z,45.09
2018-07-03T12:19:01.136Z,45.52
2018-07-03T12:21:30.912Z,43.92
2018-07-03T12:24:00.516Z,41.63
2018-07-03T12:26:30.098Z,40.90
2018-07-03T12:28:59.751Z,39.66
2018-07-03T12:31:29.865Z,36.78
2018-07-03T12:34:01.091Z,35.04
2018-07-03T12:36:32.533Z,32.84
2018-07-03T12:39:02.378Z,32.46
2018-07-03T12:41:32.478Z,33.24
2018-07-03T12:44:02.000Z,32.89
2018-07-03T12:46:31.446Z,32.91
2018-07-03T12:49:01.020Z,32.12
2018-07-03T12:51:30.540Z,31.74
2018-07-03T12:54:00.599Z,29.63
2018-07-03T12:56:30.897Z,28.65
2018-07-03T12:59:00.352Z,26.84
2018-07-03T13:01:30.021Z,27.45
2018-07-03T13:03:59.284Z,25.64
2018-07-03T13:06:28.748Z,25.56
2018-07-03T13:08:58.212Z,27.71
2018-07-03T13:11:27.656Z,28.26
2018-07-03T13:13:56.927Z,26.80
2018-07-03T13:16:26.451Z,28.27
2018-07-03T13:18:55.643Z,27.82
2018-07-03T13:21:24.962Z,27.56
2018-07-03T13:23:54.823Z,26.01
2018-07-03T13:26:26.027Z,26.61
2018-07-03T13:28:58.395Z,27.21
2018-07-03T13:31:28.958Z,27.26
2018-07-03T13:33:58.443Z,27.81
2018-07-03T13:36:27.986Z,26.92
2018-07-03T13:38:57.570Z,27.29
2018-07-03T13:41:30.035Z,27.20
2018-07-03T13:43:59.764Z,25.78
2018-07-03T13:46:30.188Z,27.72
2018-07-03T13:48:59.646Z,28.81
2018-07-03T13:51:29.866Z,28.49
2018-07-03T13:54:00.153Z,30.58
2018-07-03T13:56:31.097Z,27.15
2018-07-03T13:59:00.635Z,26.67
2018-07-03T14:01:31.113Z,26.97
2018-07-03T14:04:01.633Z,26.72
2018-07-03T14:06:31.839Z,25.32
2018-07-03T14:09:01.918Z,24.25
2018-07-03T14:11:32.054Z,25.65
2018-07-03T14:14:01.759Z,25.31
2018-07-03T14:16:31.374Z,27.47
2018-07-03T14:19:01.101Z,27.08
2018-07-03T14:21:30.752Z,26.39
2018-07-03T14:24:01.327Z,24.59
2018-07-03T14:26:31.095Z,25.20
2018-07-03T14:29:03.039Z,26.41
2018-07-03T14:31:32.589Z,26.99
2018-07-03T14:34:03.061Z,25.75
2018-07-03T14:36:33.368Z,24.40
2018-07-03T14:39:04.482Z,25.11
2018-07-03T14:41:34.373Z,25.65
2018-07-03T14:44:05.219Z,25.48
2018-07-03T14:46:34.873Z,26.70
2018-07-03T14:49:04.590Z,26.54
2018-07-03T14:51:34.497Z,26.45
2018-07-03T14:54:04.605Z,26.31
2018-07-03T14:56:34.645Z,25.43
2018-07-03T14:59:05.022Z,25.64
2018-07-03T15:01:34.562Z,24.30
2018-07-03T15:04:04.068Z,25.41
2018-07-03T15:06:33.562Z,26.72
2018-07-03T15:09:04.473Z,26.57
2018-07-03T15:11:33.876Z,25.82
2018-07-03T15:14:03.626Z,24.94
2018-07-03T15:16:33.599Z,24.72
2018-07-03T15:19:08.322Z,25.83
2018-07-03T15:21:38.349Z,25.51
2018-07-03T15:24:08.746Z,25.40
2018-07-03T15:26:40.078Z,25.45
2018-07-03T15:29:10.547Z,23.97
2018-07-03T15:31:40.184Z,24.63
2018-07-03T15:34:11.343Z,25.29
2018-07-03T15:36:41.476Z,25.72
2018-07-03T15:39:13.661Z,25.62
2018-07-03T15:41:43.077Z,26.04
2018-07-03T15:44:31.786Z,26.65
2018-07-03T15:47:01.835Z,26.10
2018-07-03T15:49:31.390Z,25.79
2018-07-03T15:52:00.953Z,25.13
2018-07-03T15:54:30.397Z,23.92
2018-07-03T15:57:00.390Z,25.17
2018-07-03T15:59:30.585Z,26.19
2018-07-03T16:02:00.467Z,24.82
2018-07-03T16:05:15.895Z,23.53
2018-07-03T16:08:07.644Z,24.56
2018-07-03T16:10:37.623Z,24.29
2018-07-03T16:13:07.149Z,24.58
2018-07-03T16:15:37.806Z,25.78
2018-07-03T16:18:07.393Z,25.55
2018-07-03T16:20:39.209Z,27.29
2018-07-03T16:23:09.350Z,26.87
2018-07-03T16:25:39.416Z,27.61
2018-07-03T16:28:09.838Z,26.42
2018-07-03T16:30:39.333Z,27.59
2018-07-03T16:33:08.899Z,27.92
2018-07-03T16:35:38.228Z,27.26
2018-07-03T16:38:07.946Z,28.93
2018-07-03T16:40:37.398Z,29.15
2018-07-03T16:43:06.947Z,29.62
2018-07-03T16:45:36.498Z,30.02
2018-07-03T16:48:06.546Z,29.31
2018-07-03T16:50:36.057Z,30.08
2018-07-03T16:53:05.517Z,29.70
2018-07-03T16:55:34.902Z,28.41
2018-07-03T16:58:04.363Z,29.23
2018-07-03T17:00:33.960Z,27.42
2018-07-03T17:03:03.807Z,27.66
2018-07-03T17:05:33.376Z,27.50
2018-07-03T17:08:02.981Z,25.93
2018-07-03T17:10:32.549Z,26.15
2018-07-03T17:13:01.961Z,27.09
2018-07-03T17:15:31.538Z,27.29
2018-07-03T17:18:01.004Z,27.69
2018-07-03T17:20:30.341Z,28.65
2018-07-03T17:22:59.961Z,27.37
2018-07-03T17:25:29.390Z,27.79
2018-07-03T17:27:58.903Z,27.17
2018-07-03T17:30:28.489Z,30.22
2018-07-03T17:32:58.107Z,30.23
2018-07-03T17:35:27.662Z,32.67
2018-07-03T17:37:57.109Z,33.62
2018-07-03T17:40:43.724Z,33.69
2018-07-03T17:45:27.645Z,34.44
2018-07-03T17:47:57.181Z,36.21
2018-07-03T17:50:27.021Z,36.51
2018-07-03T17:52:56.469Z,36.13
2018-07-03T17:55:26.223Z,36.84
2018-07-03T17:57:56.091Z,37.79
2018-07-03T18:00:25.666Z,38.47
2018-07-03T18:02:54.975Z,39.16
2018-07-03T18:05:25.179Z,39.46
2018-07-03T18:07:54.937Z,39.63
2018-07-03T18:10:24.449Z,39.97
2018-07-03T18:12:54.511Z,40.06
2018-07-03T18:15:23.996Z,39.93
2018-07-03T18:17:53.587Z,40.55
2018-07-03T18:20:23.080Z,41.23
2018-07-03T18:22:52.861Z,41.04
2018-07-03T18:25:22.445Z,41.76
2018-07-03T18:27:51.923Z,42.85
2018-07-03T18:30:21.555Z,43.75
2018-07-03T18:32:51.186Z,44.13
2018-07-03T18:35:20.606Z,44.56
2018-07-03T18:37:49.887Z,44.28
2018-07-03T18:40:19.380Z,44.83
2018-07-03T18:42:48.985Z,45.75
2018-07-03T18:45:18.997Z,46.66
2018-07-03T18:47:48.455Z,47.17
2018-07-03T18:50:17.620Z,47.34
2018-07-03T18:52:47.192Z,47.52
2018-07-03T18:55:16.710Z,49.04
2018-07-03T18:57:46.285Z,49.03
2018-07-03T19:00:16.964Z,50.11
2018-07-03T19:02:46.499Z,51.27
2018-07-03T19:05:15.954Z,50.42
2018-07-03T19:07:45.814Z,51.63
2018-07-03T19:10:15.323Z,52.20
2018-07-03T19:12:45.513Z,52.30
2018-07-03T19:15:15.126Z,54.11
2018-07-03T19:17:44.645Z,53.96
2018-07-03T19:20:14.474Z,55.13
2018-07-03T19:22:43.959Z,55.44
2018-07-03T19:25:13.477Z,55.88
2018-07-03T19:27:43.105Z,57.17
2018-07-03T19:30:12.755Z,56.94
2018-07-03T19:32:42.427Z,58.20
2018-07-03T19:35:12.312Z,59.29
2018-07-03T19:37:42.099Z,59.63
2018-07-03T19:40:12.589Z,59.54
2018-07-03T19:42:57.285Z,60.79
2018-07-03T19:45:26.802Z,61.78
2018-07-03T19:47:56.400Z,62.03
2018-07-03T19:50:27.964Z,62.64
2018-07-03T19:52:57.117Z,62.80
2018-07-03T19:55:26.482Z,63.76
2018-07-03T19:57:56.116Z,64.17
2018-07-03T20:00:25.992Z,64.93
2018-07-03T20:02:56.136Z,64.83
2018-07-03T20:05:25.863Z,65.88
2018-07-03T20:07:55.537Z,65.93
2018-07-03T20:10:25.023Z,66.87
2018-07-03T20:12:55.218Z,67.06
2018-07-03T20:15:25.408Z,67.45
2018-07-03T20:17:55.069Z,68.12
2018-07-03T20:20:26.134Z,67.86
2018-07-03T20:22:56.937Z,68.54
2018-07-03T20:25:26.374Z,68.41
2018-07-03T20:27:55.862Z,69.43
2018-07-03T20:30:25.462Z,68.80
2018-07-03T20:32:54.927Z,69.31
2018-07-03T20:35:24.545Z,70.33
2018-07-03T20:37:58.581Z,69.48
2018-07-03T20:41:01.988Z,70.88
2018-07-03T20:43:34.642Z,71.44
2018-07-03T20:46:05.172Z,71.13
2018-07-03T20:48:35.583Z,70.99
2018-07-03T20:51:08.010Z,71.36
2018-07-03T20:53:38.087Z,72.34
2018-07-03T20:56:08.464Z,72.28
2018-07-03T20:58:38.885Z,72.24
2018-07-03T21:01:09.327Z,72.62
2018-07-03T21:03:38.791Z,73.41
2018-07-03T21:06:10.147Z,73.93
2018-07-03T21:08:40.469Z,73.34
2018-07-03T21:11:10.639Z,74.17
2018-07-03T21:13:40.126Z,74.49
2018-07-03T21:16:09.640Z,74.89
2018-07-03T21:18:39.763Z,74.98
2018-07-03T21:21:09.241Z,74.89
2018-07-03T21:23:38.631Z,75.03
2018-07-03T21:26:09.009Z,74.62
2018-07-03T21:28:39.092Z,74.77
2018-07-03T21:31:09.790Z,74.77
2018-07-03T21:33:39.962Z,75.49
2018-07-03T21:36:09.438Z,76.27
2018-07-03T21:38:39.211Z,76.24
2018-07-03T21:41:08.699Z,76.00
2018-07-03T21:43:38.578Z,76.49
2018-07-03T21:46:09.615Z,76.57
2018-07-03T21:48:39.458Z,76.80
2018-07-03T21:51:09.625Z,77.67
2018-07-03T21:53:39.780Z,77.15
2018-07-03T21:56:09.029Z,77.21
2018-07-03T21:58:39.328Z,77.87
2018-07-03T22:01:08.893Z,78.33
2018-07-03T22:03:39.015Z,78.07
2018-07-03T22:06:09.309Z,77.94
2018-07-03T22:08:39.370Z,77.87
2018-07-03T22:11:09.960Z,78.40
2018-07-03T22:13:41.327Z,77.79
2018-07-03T22:16:11.722Z,79.09
2018-07-03T22:18:41.303Z,78.74
2018-07-03T22:21:11.259Z,79.61
2018-07-03T22:23:40.713Z,79.14
2018-07-03T22:26:09.948Z,79.71
2018-07-03T22:28:40.381Z,79.42
2018-07-03T22:31:10.170Z,79.89
2018-07-03T22:33:39.633Z,80.03
2018-07-03T22:36:09.164Z,80.17
2018-07-03T22:38:38.765Z,80.57
2018-07-03T22:41:09.191Z,80.33
2018-07-03T22:43:39.089Z,80.28
2018-07-03T22:46:08.565Z,80.50
2018-07-03T22:48:38.045Z,80.91
2018-07-03T22:51:10.253Z,81.01
2018-07-03T22:53:41.404Z,81.11
2018-07-03T22:56:12.322Z,80.71
2018-07-03T22:58:41.761Z,80.93
2018-07-03T23:01:15.595Z,81.37
2018-07-03T23:03:45.318Z,80.88
2018-07-03T23:06:14.852Z,81.13
2018-07-03T23:08:44.670Z,81.00
2018-07-03T23:11:14.946Z,81.32
2018-07-03T23:13:45.407Z,81.40
2018-07-03T23:16:14.878Z,81.03
2018-07-03T23:18:44.358Z,81.94
2018-07-03T23:21:13.804Z,81.30
2018-07-03T23:23:44.497Z,81.67
2018-07-03T23:26:14.245Z,81.76
2018-07-03T23:28:43.892Z,81.68
2018-07-03T23:31:13.474Z,82.06
2018-07-03T23:33:44.122Z,82.14
2018-07-03T23:36:13.632Z,82.06
2018-07-03T23:38:43.485Z,81.80
2018-07-03T23:41:13.172Z,81.54
2018-07-03T23:43:42.658Z,82.85
2018-07-03T23:46:10.421Z,82.05
2018-07-03T23:48:56.870Z,82.05
2018-07-03T23:51:43.466Z,82.61
2018-07-03T23:54:31.284Z,82.98
2018-07-03T23:57:17.752Z,83.49
2018-07-03T23:59:58.293Z,82.04
